Time;durP1;ratioP1;P1;durP2;ratioP2;P2;SDS_P1;SDS_P2;PMS_P1;PMS_P2;Temp;Humidity;BMP_temperature;BMP_pressure;BME280_temperature;BME280_humidity;BME280_pressure;Samples;Min_cycle;Max_cycle;Signal;HPM_P1;HPM_P2
2022/03/25 00:00:12;;;;;;;21.23;12.35;;;;;;;2.47;61.88;99491.63;4761519;30;20039;-85
2022/03/25 00:02:41;;;;;;;25.13;12.85;;;;;;;2.50;62.10;99496.84;4775951;30;20488;-86
2022/03/25 00:05:07;;;;;;;;;;;;;;;2.85;62.68;99549.78;4761468;30;20059;-86
2022/03/25 00:07:34;;;;;;;21.10;12.93;;;;;;;2.61;62.09;99514.16;4774809;30;19934;-86
2022/03/25 00:10:00;;;;;;;22.90;12.85;;;;;;;2.33;62.05;99469.94;4745478;30;20127;-86
2022/03/25 00:12:26;;;;;;;25.60;13.32;;;;;;;2.68;61.81;99521.19;4745090;30;20043;-85
2022/03/25 00:14:52;;;;;;;23.70;13.07;;;;;;;2.74;61.83;99545.22;4760945;30;20083;-85
2022/03/25 00:17:18;;;;;;;25.40;13.48;;;;;;;2.68;62.43;99541.66;4744060;30;20039;-86
2022/03/25 00:19:44;;;;;;;22.67;13.27;;;;;;;2.53;62.18;99531.91;4741974;29;20071;-85
2022/03/25 00:22:10;;;;;;;22.55;12.85;;;;;;;2.36;62.51;99513.53;4746656;30;20047;-85
2022/03/25 00:24:36;;;;;;;19.73;12.13;;;;;;;2.25;62.54;99504.72;4756247;30;20035;-84
2022/03/25 00:27:02;;;;;;;27.40;13.13;;;;;;;2.23;62.67;99507.22;4772759;30;20495;-84
2022/03/25 00:29:27;;;;;;;;;;;;;;;2.46;63.17;99547.91;4772828;30;20051;-85
2022/03/25 00:31:53;;;;;;;20.95;13.02;;;;;;;2.10;62.92;99487.25;4788297;29;19942;-83
2022/03/25 00:34:19;;;;;;;25.20;13.57;;;;;;;2.24;63.41;99511.50;4743490;30;20104;-85
2022/03/25 00:36:45;;;;;;;23.38;13.02;;;;;;;2.37;63.53;99543.41;4770259;30;20043;-86
2022/03/25 00:39:11;;;;;;;23.25;12.55;;;;;;;2.28;63.75;99530.38;4802698;30;20082;-86
2022/03/25 00:41:37;;;;;;;21.83;12.32;;;;;;;2.12;63.68;99487.31;4755387;29;20390;-85
2022/03/25 00:44:07;;;;;;;19.25;12.15;;;;;;;2.28;63.47;99515.03;4791589;29;20103;-84
2022/03/25 00:46:36;;;;;;;21.33;12.57;;;;;;;2.28;63.48;99509.91;4762511;30;20039;-87
2022/03/25 00:49:04;;;;;;;20.38;11.45;;;;;;;2.13;62.94;99474.53;4762265;30;20062;-85
2022/03/25 00:51:30;;;;;;;21.83;12.93;;;;;;;2.10;63.39;99473.59;4778254;29;20043;-84
2022/03/25 00:53:56;;;;;;;22.50;12.48;;;;;;;2.20;62.78;99506.25;4765330;29;20580;-85
2022/03/25 00:56:23;;;;;;;19.30;11.75;;;;;;;2.01;63.08;99489.56;4765806;29;20038;-85
2022/03/25 00:58:49;;;;;;;20.23;12.07;;;;;;;2.06;63.19;99499.91;4781597;30;20051;-86
2022/03/25 01:01:15;;;;;;;;;;;;;;;2.37;63.54;99548.53;4760215;30;20044;-85
2022/03/25 01:03:42;;;;;;;21.58;11.90;;;;;;;2.09;62.93;99505.97;4792358;30;19913;-85
2022/03/25 01:06:10;;;;;;;21.63;12.45;;;;;;;1.89;63.12;99487.53;4748686;30;20039;-84
2022/03/25 01:08:40;;;;;;;22.27;12.38;;;;;;;2.22;63.04;99545.56;4780323;29;20094;-85
2022/03/25 01:11:06;;;;;;;22.80;12.80;;;;;;;2.14;63.59;99531.69;4769665;30;20066;-85
2022/03/25 01:13:33;;;;;;;22.75;12.43;;;;;;;2.02;63.54;99530.53;4762054;29;20091;-84
2022/03/25 01:16:04;;;;;;;21.38;12.68;;;;;;;2.04;63.83;99539.13;4804585;29;20043;-87
2022/03/25 01:18:30;;;;;;;19.55;12.65;;;;;;;1.91;64.02;99518.28;4779302;29;20067;-84
2022/03/25 01:20:57;;;;;;;23.98;13.23;;;;;;;2.00;64.14;99539.84;4771670;30;20055;-84
2022/03/25 01:23:24;;;;;;;23.65;13.15;;;;;;;1.87;64.25;99524.13;4760634;30;20050;-87
2022/03/25 01:25:50;;;;;;;20.05;12.13;;;;;;;1.95;64.29;99540.56;4773188;30;20039;-87
2022/03/25 01:28:16;;;;;;;21.92;11.85;;;;;;;1.90;64.59;99530.19;4766087;29;20031;-85
2022/03/25 01:30:43;;;;;;;20.83;12.35;;;;;;;1.89;64.13;99530.16;4776845;29;20054;-86
2022/03/25 01:33:10;;;;;;;19.95;12.30;;;;;;;1.90;64.19;99539.56;4780688;30;20052;-84
2022/03/25 01:35:43;;;;;;;22.92;13.50;;;;;;;1.68;64.47;99508.25;4793956;29;20067;-83
2022/03/25 01:38:09;;;;;;;23.73;12.98;;;;;;;1.75;64.75;99525.50;4778704;29;20055;-83
2022/03/25 01:40:35;;;;;;;22.98;12.75;;;;;;;1.80;64.48;99530.75;4779326;29;20514;-83
2022/03/25 01:43:01;;;;;;;;;;;;;;;1.95;65.00;99541.41;4772913;30;20085;-85
2022/03/25 01:45:34;;;;;;;23.88;12.82;;;;;;;1.87;64.01;99535.22;4775436;30;19917;-84
2022/03/25 01:48:02;;;;;;;23.73;13.23;;;;;;;1.76;64.12;99531.50;4792998;29;20051;-85
2022/03/25 01:50:34;;;;;;;20.40;12.95;;;;;;;1.86;64.60;99540.28;4793099;30;20058;-84
2022/03/25 01:53:00;;;;;;;24.33;12.85;;;;;;;1.86;64.55;99540.28;4759343;29;20043;-84
2022/03/25 01:55:26;;;;;;;;;;;;;;;1.88;65.10;99549.75;4763275;30;20114;-83
2022/03/25 01:57:55;;;;;;;22.27;12.17;;;;;;;1.73;64.14;99537.38;4791996;29;19925;-85
2022/03/25 02:00:22;;;;;;;20.67;12.40;;;;;;;1.82;64.00;99548.69;4773028;30;20043;-84
2022/03/25 02:02:47;;;;;;;22.80;13.15;;;;;;;1.73;64.41;99550.16;4774154;30;20045;-84
2022/03/25 02:05:15;;;;;;;21.60;13.10;;;;;;;1.72;64.69;99552.69;4762654;29;20055;-85
2022/03/25 02:07:41;;;;;;;22.83;12.75;;;;;;;1.62;64.40;99548.13;4771244;30;20042;-87
2022/03/25 02:10:08;;;;;;;26.98;13.85;;;;;;;1.55;64.60;99543.63;4788693;29;20051;-86
2022/03/25 02:12:38;;;;;;;26.17;13.73;;;;;;;1.60;64.76;99560.84;4766039;30;20043;-86
2022/03/25 02:15:05;;;;;;;25.88;13.70;;;;;;;1.67;64.72;99572.13;4763400;30;20046;-85
2022/03/25 02:17:32;;;;;;;22.23;13.27;;;;;;;1.43;64.90;99531.38;4759704;30;20042;-84
2022/03/25 02:19:58;;;;;;;24.23;13.35;;;;;;;1.65;64.82;99563.53;4775201;30;20449;-85
2022/03/25 02:22:24;;;;;;;25.23;14.25;;;;;;;1.55;64.57;99557.28;4775105;29;20054;-85
2022/03/25 02:24:50;;;;;;;;;;;;;;;1.66;64.64;99596.84;4765565;30;20050;-86
2022/03/25 02:27:16;;;;;;;29.15;15.10;;;;;;;1.97;65.32;99559.38;4795823;30;19917;-85
2022/03/25 02:29:45;;;;;;;32.42;16.50;;;;;;;2.60;63.34;99594.38;4761950;30;20044;-85
2022/03/25 02:32:12;;;;;;;33.20;16.38;;;;;;;2.68;60.03;99563.03;4794951;30;20047;-85
2022/03/25 02:34:41;;;;;;;35.53;17.27;;;;;;;2.57;59.80;99584.03;4752491;29;20035;-86
2022/03/25 02:37:07;;;;;;;31.40;17.10;;;;;;;2.46;61.44;99592.31;4779983;29;20043;-85
2022/03/25 02:39:33;;;;;;;;;;;;;;;2.67;60.95;99592.03;4771474;30;20103;-86
2022/03/25 02:41:59;;;;;;;37.13;16.77;;;;;;;2.40;59.97;99571.69;4797731;29;20298;-84
2022/03/25 02:44:26;;;;;;;31.08;15.57;;;;;;;2.31;60.67;99579.09;4773771;30;20103;-85
2022/03/25 02:46:51;;;;;;;33.33;15.52;;;;;;;2.42;61.48;99584.50;4759247;30;20027;-85
2022/03/25 02:49:21;;;;;;;28.48;14.88;;;;;;;2.58;61.27;99583.25;4772182;30;20099;-87
2022/03/25 02:51:46;;;;;;;26.13;14.23;;;;;;;2.38;60.43;99581.00;4777733;29;20050;-84
2022/03/25 02:54:12;;;;;;;28.25;14.20;;;;;;;2.39;61.50;99584.44;4776986;29;20053;-85
2022/03/25 02:56:38;;;;;;;27.25;13.60;;;;;;;2.41;60.28;99588.75;4779925;30;20059;-87
2022/03/25 02:59:04;;;;;;;29.05;14.75;;;;;;;2.07;61.61;99576.72;4764154;30;20055;-85
2022/03/25 03:04:55;;;;;;;26.67;14.07;;;;;;;1.60;62.50;99565.97;4825023;29;20047;-82
2022/03/25 03:07:21;;;;;;;34.08;15.63;;;;;;;1.57;63.64;99600.81;4778042;29;20095;-83
2022/03/25 03:09:47;;;;;;;29.63;14.20;;;;;;;1.53;64.10;99587.06;4806557;24;20071;-83
2022/03/25 03:12:18;;;;;;;30.00;14.15;;;;;;;1.31;64.17;99548.88;4759713;30;20053;-82
2022/03/25 03:14:47;;;;;;;28.73;14.20;;;;;;;1.39;64.17;99578.09;4746285;30;20047;-81
2022/03/25 03:17:13;;;;;;;28.98;13.77;;;;;;;1.07;63.67;99542.19;4774453;30;20049;-82
2022/03/25 03:19:39;;;;;;;;;;;;;;;1.31;64.99;99605.09;4759281;30;20054;-83
2022/03/25 03:22:05;;;;;;;25.40;13.95;;;;;;;0.99;65.08;99551.28;4773752;30;19917;-84
2022/03/25 03:24:31;;;;;;;27.40;14.05;;;;;;;1.09;65.21;99562.66;4756880;30;20040;-82
2022/03/25 03:26:57;;;;;;;25.55;13.98;;;;;;;1.12;64.88;99565.31;4771046;30;20048;-83
2022/03/25 03:29:24;;;;;;;32.58;13.68;;;;;;;1.33;64.65;99609.47;4756577;30;20039;-84
2022/03/25 03:31:50;;;;;;;23.45;13.60;;;;;;;1.44;64.48;99604.66;4772285;30;20039;-82
2022/03/25 03:34:20;;;;;;;31.38;14.90;;;;;;;1.10;64.87;99566.94;4761729;30;20522;-84
2022/03/25 03:36:48;;;;;;;27.13;14.45;;;;;;;1.22;65.61;99600.56;4762520;30;20119;-83
2022/03/25 03:39:16;;;;;;;28.15;14.68;;;;;;;1.13;65.18;99584.94;4765071;30;20115;-84
2022/03/25 03:41:43;;;;;;;29.75;15.32;;;;;;;1.15;65.54;99590.97;4736989;30;20424;-84
2022/03/25 03:44:10;;;;;;;31.55;16.02;;;;;;;0.96;65.99;99562.28;4772850;30;20051;-85
2022/03/25 03:46:39;;;;;;;32.55;20.23;;;;;;;1.12;66.10;99573.84;4743448;30;20046;-84
2022/03/25 03:49:05;;;;;;;29.58;15.77;;;;;;;1.21;65.84;99574.16;4742961;30;20072;-83
2022/03/25 03:51:31;;;;;;;41.75;19.92;;;;;;;1.21;65.66;99568.16;4766178;30;20102;-81
2022/03/25 03:53:57;;;;;;;34.35;19.70;;;;;;;1.17;66.45;99586.78;4759861;30;20047;-84
2022/03/25 03:56:26;;;;;;;30.23;18.63;;;;;;;1.24;67.58;99581.91;4762207;30;20115;-83
2022/03/25 03:58:55;;;;;;;38.15;20.55;;;;;;;1.30;66.59;99573.56;4755265;30;20131;-83
2022/03/25 04:01:20;;;;;;;33.53;19.40;;;;;;;1.50;66.39;99599.75;4744887;30;20047;-88
2022/03/25 04:03:47;;;;;;;33.33;21.25;;;;;;;1.58;66.87;99576.97;4824100;24;20063;-84
2022/03/25 04:06:13;;;;;;;35.45;21.42;;;;;;;1.71;65.53;99581.63;4773613;30;20148;-84
2022/03/25 04:08:39;;;;;;;39.17;19.90;;;;;;;1.78;65.01;99579.28;4770150;30;20051;-86
2022/03/25 04:11:05;;;;;;;33.83;21.17;;;;;;;1.65;65.08;99568.66;4727649;30;20088;-84
2022/03/25 04:13:32;;;;;;;32.45;20.95;;;;;;;1.58;65.15;99566.75;4759855;30;20038;-86
2022/03/25 04:15:58;;;;;;;;;;;;;;;1.93;65.67;99607.03;4757622;30;20040;-86
2022/03/25 04:18:24;;;;;;;39.70;22.20;;;;;;;1.74;65.34;99584.28;4774597;30;19936;-86
2022/03/25 04:20:50;;;;;;;36.80;21.15;;;;;;;1.92;65.39;99602.72;4748814;30;20035;-85
2022/03/25 04:23:17;;;;;;;;;;;;;;;2.11;65.57;99609.25;4758306;30;20058;-84
2022/03/25 04:25:42;;;;;;;39.58;20.23;;;;;;;1.98;64.77;99577.34;4778827;30;19906;-85
2022/03/25 04:28:09;;;;;;;40.67;22.05;;;;;;;1.97;64.44;99559.38;4763554;29;20082;-84
2022/03/25 04:31:20;;;;;;;34.45;21.38;;;;;;;2.24;63.92;99592.53;4786835;29;20059;-83
2022/03/25 04:33:55;;;;;;;31.55;19.52;;;;;;;2.41;64.39;99593.88;4794566;30;20051;-83
2022/03/25 04:36:22;;;;;;;38.95;20.08;;;;;;;2.49;62.78;99574.47;4763488;30;20031;-83
2022/03/25 04:38:48;;;;;;;;;;;;;;;2.90;61.90;99605.44;4766303;30;20055;-85
2022/03/25 04:41:19;;;;;;;34.95;19.10;;;;;;;2.53;61.34;99568.63;4796236;30;19908;-85
2022/03/25 04:43:45;;;;;;;34.58;20.35;;;;;;;2.34;61.73;99553.59;4751322;30;20023;-86
2022/03/25 04:46:11;;;;;;;31.77;18.52;;;;;;;2.42;61.88;99569.16;4749593;30;20073;-86
2022/03/25 04:48:47;;;;;;;33.40;17.50;;;;;;;2.62;62.18;99585.06;4779646;30;20420;-85
2022/03/25 04:51:15;;;;;;;29.70;17.17;;;;;;;2.50;60.29;99575.34;4777039;30;20031;-85
2022/03/25 04:56:23;;;;;;;29.67;16.15;;;;;;;2.85;60.03;99599.31;4792215;29;20061;-87
2022/03/25 04:58:50;;;;;;;29.40;15.70;;;;;;;2.67;59.91;99583.47;4747708;30;20078;-85
2022/03/25 05:01:55;;;;;;;33.08;18.95;;;;;;;2.63;60.79;99558.63;4764386;29;20055;-86
2022/03/25 05:04:42;;;;;;;30.48;15.50;;;;;;;3.24;59.45;99603.69;4778259;30;20051;-87
2022/03/25 05:07:17;;;;;;;32.22;15.63;;;;;;;3.16;57.32;99593.28;4764781;30;20033;-87
2022/03/25 05:10:03;;;;;;;27.00;15.82;;;;;;;3.47;57.60;99614.50;4766533;29;20030;-86
2022/03/25 05:12:34;;;;;;;34.53;15.25;;;;;;;3.21;57.03;99590.81;4760334;30;20047;-86
2022/03/25 05:15:01;;;;;;;34.00;15.52;;;;;;;3.13;57.94;99593.19;4780798;29;20043;-86
2022/03/25 05:17:30;;;;;;;32.63;15.20;;;;;;;3.70;57.85;99615.91;4761851;30;20545;-85
2022/03/25 05:20:06;;;;;;;30.80;14.93;;;;;;;3.64;56.04;99607.22;5180413;24;20101;-86
2022/03/25 05:22:32;;;;;;;32.17;15.73;;;;;;;3.81;56.40;99623.84;4752373;29;20076;-85
2022/03/25 05:24:58;;;;;;;;;;;;;;;3.79;55.14;99628.06;4770590;30;20055;-84
2022/03/25 05:27:24;;;;;;;40.53;15.80;;;;;;;3.40;56.88;99590.44;4760793;30;19916;-86
2022/03/25 05:29:50;;;;;;;40.47;17.05;;;;;;;3.79;56.27;99610.09;4798583;29;20035;-85
2022/03/25 05:32:16;;;;;;;37.22;16.10;;;;;;;4.06;55.73;99615.84;4953270;24;20059;-85
2022/03/25 05:34:44;;;;;;;26.40;14.93;;;;;;;4.39;55.03;99596.81;4784614;29;20051;-83
2022/03/25 05:37:11;;;;;;;28.35;13.63;;;;;;;4.43;54.21;99597.75;4815476;29;20059;-85
2022/03/25 05:39:37;;;;;;;25.08;13.93;;;;;;;4.58;53.48;99596.34;4771541;29;20030;-84
2022/03/25 05:42:04;;;;;;;28.60;14.65;;;;;;;4.68;52.45;99615.38;4790917;29;20066;-85
2022/03/25 05:44:31;;;;;;;33.92;14.88;;;;;;;4.25;52.68;99575.13;4818076;29;20038;-84
2022/03/25 05:46:58;;;;;;;30.35;15.05;;;;;;;4.15;53.90;99591.19;4802021;29;20054;-86
2022/03/25 05:49:24;;;;;;;29.20;14.45;;;;;;;4.21;53.70;99610.16;4776454;30;20043;-84
2022/03/25 05:51:53;;;;;;;33.65;15.00;;;;;;;4.02;53.82;99596.06;4781675;30;20066;-86
2022/03/25 05:54:21;;;;;;;35.17;16.23;;;;;;;3.89;54.35;99606.91;4781736;30;20038;-85
2022/03/25 05:56:48;;;;;;;33.40;15.98;;;;;;;3.74;54.63;99596.31;4800149;29;20145;-86
2022/03/25 05:59:14;;;;;;;38.10;15.38;;;;;;;3.78;54.90;99616.94;4773904;29;20053;-84
2022/03/25 06:01:42;;;;;;;50.90;24.02;;;;;;;3.90;54.00;99630.91;4788102;29;20105;-85
2022/03/25 06:04:13;;;;;;;27.23;15.75;;;;;;;3.84;53.01;99616.19;4814221;29;20050;-86
2022/03/25 06:06:39;;;;;;;34.08;15.25;;;;;;;3.91;52.72;99615.53;4772249;30;20044;-86
2022/03/25 06:09:09;;;;;;;37.13;14.52;;;;;;;4.16;51.96;99634.00;4800016;29;20026;-85
2022/03/25 06:11:47;;;;;;;42.55;23.92;;;;;;;4.22;51.16;99604.19;4797511;30;20043;-84
2022/03/25 06:14:16;;;;;;;35.72;15.30;;;;;;;4.31;50.06;99604.38;4796744;30;20035;-85
2022/03/25 06:16:44;;;;;;;30.48;13.73;;;;;;;4.45;50.08;99614.94;4793489;29;20058;-86
2022/03/25 06:19:12;;;;;;;29.38;13.02;;;;;;;4.74;48.94;99643.75;4801458;29;20054;-84
2022/03/25 06:21:40;;;;;;;37.47;13.48;;;;;;;4.83;48.45;99641.34;4814579;29;20068;-86
2022/03/25 06:24:07;;;;;;;45.95;14.77;;;;;;;4.74;47.68;99619.75;4784562;29;20057;-85
2022/03/25 06:26:34;;;;;;;31.90;13.35;;;;;;;4.99;47.76;99642.47;4785163;29;20035;-85
2022/03/25 06:29:10;;;;;;;25.52;13.32;;;;;;;4.88;49.05;99605.44;4981692;24;20063;-86
2022/03/25 06:31:36;;;;;;;34.20;15.52;;;;;;;5.29;50.47;99649.00;4803446;29;20041;-86
2022/03/25 06:34:10;;;;;;;34.75;16.50;;;;;;;5.09;51.25;99613.53;4804656;29;20050;-88
2022/03/25 06:36:40;;;;;;;39.40;16.40;;;;;;;5.09;51.90;99610.13;4819516;29;20442;-85
2022/03/25 06:42:13;;;;;;;38.58;17.27;;;;;;;5.04;52.55;99592.03;5166718;24;20063;-85
2022/03/25 06:45:18;;;;;;;38.08;16.13;;;;;;;5.30;52.83;99628.44;4810603;29;20023;-86
2022/03/25 06:51:21;;;;;;;40.85;16.67;;;;;;;5.55;52.33;99646.88;4782618;27;20104;-86
2022/03/25 06:53:57;;;;;;;32.75;15.70;;;;;;;5.54;51.77;99652.84;4771168;29;20038;-84
2022/03/25 06:56:27;;;;;;;37.28;16.05;;;;;;;5.32;50.79;99621.63;4752179;29;20039;-86
2022/03/25 06:58:56;;;;;;;36.88;15.57;;;;;;;5.46;50.97;99629.56;4768645;30;20071;-85
2022/03/25 07:01:27;;;;;;;36.90;14.95;;;;;;;5.47;50.40;99621.00;4766441;29;20024;-85
2022/03/25 07:04:10;;;;;;;33.00;13.70;;;;;;;5.52;49.15;99614.22;5182856;24;20043;-86
2022/03/25 07:07:01;;;;;;;32.38;15.23;;;;;;;5.81;49.34;99648.09;4799381;29;20023;-84
2022/03/25 07:09:30;;;;;;;45.17;14.23;;;;;;;5.89;49.74;99658.53;4813433;29;20051;-85
2022/03/25 07:11:58;;;;;;;38.78;14.52;;;;;;;5.80;48.40;99624.94;4784149;29;20043;-83
2022/03/25 07:14:24;;;;;;;30.98;14.45;;;;;;;5.96;48.48;99626.94;4767962;29;20030;-85
2022/03/25 07:16:50;;;;;;;30.17;13.93;;;;;;;6.06;47.35;99612.47;4769414;29;20043;-86
2022/03/25 07:19:25;;;;;;;33.33;13.40;;;;;;;6.19;46.50;99613.50;4784141;29;20031;-85
2022/03/25 07:21:54;;;;;;;41.22;14.65;;;;;;;6.55;45.94;99650.00;4784490;29;20058;-87
2022/03/25 07:24:45;;;;;;;28.42;13.43;;;;;;;6.65;45.78;99643.25;4801380;29;20039;-84
2022/03/25 07:27:34;;;;;;;46.67;13.93;;;;;;;6.62;45.12;99615.72;4786557;30;20084;-86
2022/03/25 07:30:21;;;;;;;31.67;12.80;;;;;;;7.08;44.73;99652.28;4775299;30;20057;-84
2022/03/25 07:32:47;;;;;;;37.85;13.43;;;;;;;7.31;45.18;99652.50;4781961;29;20043;-85
2022/03/25 07:35:13;;;;;;;33.60;13.68;;;;;;;7.24;44.44;99611.13;4798631;30;20023;-84
2022/03/25 07:37:40;;;;;;;33.60;13.18;;;;;;;7.40;43.71;99618.16;4873529;24;20042;-86
2022/03/25 07:48:58;;;;;;;32.70;12.15;;;;;;;8.17;41.63;99644.50;4863457;24;20104;-86
2022/03/25 07:51:45;;;;;;;32.92;13.30;;;;;;;8.19;40.27;99606.59;4777915;30;20047;-86
2022/03/25 07:54:21;;;;;;;36.90;13.35;;;;;;;8.39;41.17;99581.75;4777927;30;20036;-87
2022/03/25 07:57:27;;;;;;;26.67;11.98;;;;;;;8.93;39.68;99603.41;4795285;30;20546;-86
2022/03/25 07:59:58;;;;;;;27.70;12.98;;;;;;;9.36;38.83;99606.91;4809759;29;20111;-86
2022/03/25 08:02:24;;;;;;;29.42;12.27;;;;;;;9.73;37.41;99590.47;4776019;30;20047;-85
2022/03/25 08:04:51;;;;;;;32.30;11.73;;;;;;;10.33;36.00;99619.72;4776751;30;20059;-84
2022/03/25 08:07:18;;;;;;;26.38;11.38;;;;;;;10.65;34.82;99615.25;4734124;30;20040;-87
2022/03/25 08:10:04;;;;;;;23.73;10.75;;;;;;;10.84;33.90;99612.53;4738943;30;20036;-85
2022/03/25 08:12:35;;;;;;;22.33;11.15;;;;;;;11.02;32.95;99633.19;4748600;30;20101;-85
2022/03/25 08:15:06;;;;;;;27.08;10.80;;;;;;;10.87;33.15;99586.59;4760787;30;20112;-86
2022/03/25 08:20:56;;;;;;;24.73;10.90;;;;;;;11.21;31.81;99584.59;3229843;27;20659;-88
2022/03/25 08:28:57;;;;;;;23.48;8.63;;;;;;;12.69;29.65;99603.84;4808719;29;20043;-85
2022/03/25 08:31:24;;;;;;;18.73;8.80;;;;;;;12.84;28.33;99574.13;4798672;29;20047;-84
2022/03/25 08:33:50;;;;;;;24.27;8.93;;;;;;;13.23;27.25;99590.91;4825157;29;20046;-85
2022/03/25 08:36:19;;;;;;;;;;;;;;;13.53;25.44;99632.13;4814631;29;20029;-86
2022/03/25 08:38:46;;;;;;;15.93;7.63;;;;;;;13.36;26.25;99599.38;4821574;29;19916;-86
2022/03/25 08:47:03;;;;;;;16.75;7.55;;;;;;;13.27;26.67;99615.16;3888657;24;20119;-87
2022/03/25 08:49:32;;;;;;;16.98;7.50;;;;;;;13.17;28.17;99570.13;4755521;30;20056;-86
2022/03/25 08:51:58;;;;;;;11.32;6.22;;;;;;;13.43;26.02;99607.97;4753655;30;20051;-86
2022/03/25 08:54:25;;;;;;;12.10;6.65;;;;;;;13.09;25.65;99590.22;4767815;30;20047;-87
2022/03/25 08:56:53;;;;;;;12.90;6.60;;;;;;;12.78;26.80;99605.44;4776927;30;20039;-86
2022/03/25 08:59:20;;;;;;;16.88;7.03;;;;;;;12.64;27.41;99621.25;4765760;30;20070;-86
2022/03/25 09:01:47;;;;;;;12.07;6.22;;;;;;;12.32;26.88;99610.38;4749811;30;20038;-87
2022/03/25 09:04:13;;;;;;;11.57;6.57;;;;;;;12.29;27.08;99611.28;4747954;30;20123;-86
2022/03/25 09:09:13;;;;;;;11.18;6.20;;;;;;;12.21;25.93;99608.78;4817363;29;20055;-89
2022/03/25 09:11:40;;;;;;;11.57;6.40;;;;;;;12.17;25.98;99590.63;4784914;29;20031;-86
2022/03/25 09:14:07;;;;;;;12.15;6.25;;;;;;;12.28;27.05;99608.69;4783543;29;20157;-86
2022/03/25 09:16:34;;;;;;;13.02;5.50;;;;;;;12.32;25.65;99576.56;4771177;30;20265;-86
2022/03/25 09:19:00;;;;;;;7.97;5.40;;;;;;;12.25;24.81;99567.13;4765867;30;20051;-86
2022/03/25 09:21:26;;;;;;;;;;;;;;;12.57;26.02;99598.78;4818946;24;20069;-84
2022/03/25 09:23:52;;;;;;;9.30;5.57;;;;;;;12.63;24.73;99557.06;4830343;29;19921;-87
2022/03/25 09:26:18;;;;;;;;;;;;;;;12.93;23.12;99606.97;4807500;29;20056;-86
2022/03/25 09:28:45;;;;;;;10.18;5.78;;;;;;;12.96;23.99;99583.47;4864391;24;19936;-88
2022/03/25 09:31:11;;;;;;;10.05;5.72;;;;;;;13.31;24.47;99569.09;4813827;29;20042;-87
2022/03/25 09:33:38;;;;;;;11.02;5.78;;;;;;;13.76;22.88;99574.38;4806020;29;20067;-86
2022/03/25 09:36:04;;;;;;;12.45;5.38;;;;;;;14.26;23.00;99589.06;4794531;29;20095;-86
2022/03/25 09:38:31;;;;;;;9.35;4.90;;;;;;;14.91;22.19;99571.13;4815512;29;20073;-87
2022/03/25 09:43:29;;;;;;;9.15;5.03;;;;;;;15.84;21.14;99572.34;4785082;30;19930;-85
2022/03/25 09:45:56;;;;;;;11.23;5.85;;;;;;;16.42;20.68;99555.84;4745239;30;20059;-85
2022/03/25 09:48:23;;;;;;;9.38;4.95;;;;;;;17.24;20.80;99556.81;4759257;30;20524;-85
2022/03/25 09:50:50;;;;;;;12.18;5.43;;;;;;;17.91;19.43;99549.28;4745680;30;20123;-87
2022/03/25 10:33:59;;;;;;;11.20;6.18;;;;;;;21.35;16.71;99557.47;2388229;24;20387;-87
2022/03/25 10:36:41;;;;;;;12.27;5.50;;;;;;;21.95;17.05;99554.41;4774802;29;20052;-87
2022/03/25 11:26:38;;;;;;;8.48;5.10;;;;;;;20.40;16.96;99479.44;4863649;24;20093;-86
2022/03/25 11:29:07;;;;;;;7.65;5.05;;;;;;;20.58;16.80;99486.50;4766215;29;20084;-86
2022/03/25 11:34:11;;;;;;;8.73;5.03;;;;;;;21.55;16.02;99482.53;3635735;27;20048;-87
2022/03/25 11:51:40;;;;;;;10.80;6.07;;;;;;;21.97;15.79;99475.94;2683572;27;20097;-87
2022/03/25 12:00:30;;;;;;;8.68;5.57;;;;;;;20.94;16.50;99459.25;1133991;24;20112;-87
2022/03/25 12:03:02;;;;;;;7.72;5.20;;;;;;;20.53;16.68;99462.13;4778090;29;20030;-87
2022/03/25 12:05:32;;;;;;;9.55;5.75;;;;;;;19.93;17.70;99487.72;4796303;29;20048;-85
2022/03/25 12:56:55;;;;;;;10.45;4.60;;;;;;;20.25;16.82;99455.50;879830;24;20422;-87
2022/03/25 13:11:54;;;;;;;7.97;4.45;;;;;;;19.66;17.46;99398.56;5069239;24;20090;-85
2022/03/25 13:14:24;;;;;;;8.00;4.82;;;;;;;20.17;17.14;99433.94;5114524;24;20059;-85
2022/03/25 13:16:52;;;;;;;7.03;4.60;;;;;;;19.71;17.93;99449.22;4778724;30;20039;-86
2022/03/25 13:24:58;;;;;;;8.35;4.35;;;;;;;18.40;19.31;99446.81;4752159;27;20113;-85
2022/03/25 13:27:25;;;;;;;10.68;5.10;;;;;;;17.65;19.73;99432.13;4782056;30;20043;-85
2022/03/25 13:29:53;;;;;;;10.45;5.50;;;;;;;16.77;20.47;99417.75;4782736;30;20043;-86
2022/03/25 13:32:35;;;;;;;9.75;4.78;;;;;;;16.21;21.14;99423.84;4767318;30;20596;-86
2022/03/25 13:35:10;;;;;;;6.85;4.82;;;;;;;15.97;21.81;99443.75;4783041;30;20057;-86
2022/03/25 13:37:41;;;;;;;10.02;5.57;;;;;;;15.79;22.06;99446.06;4875512;24;20055;-83
2022/03/25 13:40:37;;;;;;;10.27;4.80;;;;;;;15.71;22.71;99441.91;4751993;30;20036;-87
2022/03/25 13:43:13;;;;;;;14.65;4.57;;;;;;;15.18;22.92;99404.16;4780682;30;20103;-85
2022/03/25 13:45:41;;;;;;;10.63;5.10;;;;;;;15.11;23.39;99436.56;4777962;30;20071;-85
2022/03/25 14:05:14;;;;;;;15.80;5.28;;;;;;;14.80;24.33;99397.31;4959035;24;20102;-87
2022/03/25 14:10:25;;;;;;;12.95;6.00;;;;;;;15.00;24.03;99389.81;4858769;24;20059;-85
2022/03/25 14:13:14;;;;;;;8.73;5.10;;;;;;;14.88;23.20;99361.41;4507624;28;20049;-85
2022/03/25 14:15:46;;;;;;;12.45;5.28;;;;;;;14.67;24.01;99365.44;4742815;30;20032;-86
2022/03/25 14:18:19;;;;;;;12.82;5.50;;;;;;;14.39;24.42;99376.53;4729749;30;20029;-85
2022/03/25 14:20:48;;;;;;;11.15;5.15;;;;;;;14.51;24.39;99421.53;4825610;24;20070;-84
2022/03/25 14:23:19;;;;;;;10.80;5.53;;;;;;;14.36;24.73;99391.41;4776247;30;20028;-86
2022/03/25 15:12:43;;;;;;;22.85;5.95;;;;;;;14.26;25.30;99380.34;3151953;24;20056;-86
2022/03/25 15:15:18;;;;;;;25.35;6.50;;;;;;;14.00;25.25;99326.16;4763947;30;20047;-87
2022/03/25 16:20:01;;;;;;;18.48;6.85;;;;;;;11.52;30.13;99355.75;5805618;24;20074;31
2022/03/25 16:33:42;;;;;;;14.52;6.47;;;;;;;10.93;32.05;99282.91;5340399;24;20082;-83
2022/03/25 17:27:38;;;;;;;22.05;7.78;;;;;;;10.47;34.16;99314.50;5708833;24;20043;31
2022/03/25 18:13:25;;;;;;;19.50;7.65;;;;;;;9.76;35.14;99254.59;5562944;24;20055;-85
2022/03/25 18:22:37;;;;;;;18.98;7.03;;;;;;;9.60;35.15;99243.47;5746706;24;20546;-84
2022/03/25 18:58:28;;;;;;;11.02;6.05;;;;;;;8.44;36.30;99163.88;5305128;24;20144;31
2022/03/25 19:16:30;;;;;;;8.88;4.90;;;;;;;8.58;37.36;99192.25;5577337;24;20043;-85
2022/03/25 19:19:14;;;;;;;10.60;5.60;;;;;;;8.55;37.54;99198.28;5250286;24;20068;-85
2022/03/25 19:24:30;;;;;;;7.75;5.15;;;;;;;8.20;38.23;99148.41;5192980;24;20067;-86
2022/03/25 19:26:59;;;;;;;12.45;5.60;;;;;;;8.17;38.03;99151.00;5295402;24;20030;-83
2022/03/25 19:29:27;;;;;;;13.27;5.45;;;;;;;8.12;37.94;99138.09;4794856;30;20059;-86
2022/03/25 19:31:55;;;;;;;10.45;6.13;;;;;;;8.48;37.74;99186.28;4766573;30;20023;-86
2022/03/25 19:42:41;;;;;;;10.60;5.28;;;;;;;8.11;38.34;99145.00;4882483;24;20101;-88
2022/03/25 19:47:43;;;;;;;10.38;5.03;;;;;;;8.10;38.50;99142.41;4900752;24;20077;-86
2022/03/25 19:50:24;;;;;;;8.10;5.10;;;;;;;8.04;39.44;99134.66;4811730;29;20054;-87
2022/03/25 19:52:51;;;;;;;8.90;5.47;;;;;;;8.31;39.05;99173.34;4801971;29;20053;-86
2022/03/25 19:58:19;;;;;;;11.40;5.65;;;;;;;8.19;39.86;99133.75;5032702;24;20021;31
2022/03/25 20:00:48;;;;;;;14.13;6.00;;;;;;;8.02;41.03;99110.59;4752523;30;20041;-84
2022/03/25 20:03:17;;;;;;;12.27;5.25;;;;;;;8.52;40.61;99162.13;4789843;24;20077;-86
2022/03/25 20:05:46;;;;;;;8.85;5.28;;;;;;;8.51;41.34;99124.19;4999962;24;20067;-86
2022/03/25 20:08:16;;;;;;;10.30;5.00;;;;;;;8.65;41.07;99142.22;4781570;30;20027;-85
2022/03/25 20:11:02;;;;;;;11.35;5.80;;;;;;;8.82;41.51;99174.06;4799430;29;20030;-86
2022/03/25 20:13:35;;;;;;;12.85;5.10;;;;;;;8.76;42.08;99170.66;4800050;29;20063;-85
2022/03/25 20:16:01;;;;;;;11.85;5.57;;;;;;;8.76;41.21;99171.50;4768191;29;20034;-83
2022/03/25 20:21:19;;;;;;;11.27;5.55;;;;;;;8.67;41.07;99140.53;4771328;30;20078;-84
2022/03/25 20:23:46;;;;;;;8.13;5.10;;;;;;;8.48;41.23;99116.47;4773788;30;20508;-85
2022/03/25 20:26:31;;;;;;;11.55;5.40;;;;;;;8.57;40.84;99146.59;4727046;30;20028;-85
2022/03/25 20:29:02;;;;;;;11.85;5.43;;;;;;;8.27;41.72;99116.53;4758617;30;20036;-86
2022/03/25 20:31:47;;;;;;;9.52;5.18;;;;;;;8.30;41.16;99119.97;4771224;29;20067;-86